createdAt,value
2022-12-22T06:17:19.097Z,199.76
2022-12-22T06:27:19.305Z,137.95
2022-12-22T06:37:19.274Z,164.94
2022-12-22T06:47:19.118Z,171.74
2022-12-22T06:57:19.285Z,147.01
2022-12-22T07:07:19.244Z,138.64
2022-12-22T07:17:19.063Z,141.33
2022-12-22T07:27:19.269Z,168.68
2022-12-22T07:37:19.143Z,166.65
2022-12-22T07:47:19.196Z,137.03
2022-12-22T07:57:19.264Z,145.86
2022-12-22T08:07:19.163Z,179.17
2022-12-22T08:17:19.208Z,180.00
2022-12-22T08:27:25.736Z,167.93
2022-12-22T08:37:19.459Z,93.21
2022-12-22T08:47:19.459Z,90.00
2022-12-22T08:57:19.475Z,90.00
2022-12-22T09:07:19.527Z,90.00
2022-12-22T09:17:19.377Z,90.00
2022-12-22T09:27:19.213Z,24.37
2022-12-22T09:37:19.301Z,0.00
2022-12-22T09:47:19.232Z,0.00
2022-12-22T09:57:19.312Z,0.00
2022-12-22T10:07:19.422Z,0.00
2022-12-22T10:17:19.383Z,0.00
2022-12-22T10:27:22.003Z,336.32
2022-12-22T10:37:19.413Z,315.00
2022-12-22T10:47:19.362Z,258.24
2022-12-22T10:57:19.434Z,182.62
2022-12-22T11:07:19.288Z,335.17
2022-12-22T11:17:19.222Z,352.39
2022-12-22T11:27:19.306Z,305.08
2022-12-22T11:37:19.240Z,290.14
2022-12-22T11:47:19.450Z,290.08
2022-12-22T11:57:19.370Z,255.39
2022-12-22T12:07:25.129Z,205.19
2022-12-22T12:17:19.227Z,225.36
2022-12-22T12:27:19.263Z,316.20
2022-12-22T12:37:22.659Z,252.47
2022-12-22T12:47:19.421Z,181.60
2022-12-22T12:57:19.180Z,299.36
2022-12-22T13:07:19.129Z,301.53
2022-12-22T13:17:19.176Z,224.40
2022-12-22T13:27:19.066Z,294.41
2022-12-22T13:37:19.445Z,264.29
2022-12-22T13:47:19.235Z,257.51
2022-12-22T13:57:19.269Z,312.64
2022-12-22T14:07:19.216Z,273.05
2022-12-22T14:17:19.256Z,341.02
2022-12-22T14:27:19.289Z,185.16
2022-12-22T14:37:19.333Z,203.06
2022-12-22T14:47:19.602Z,180.00
2022-12-22T14:57:19.355Z,180.00
2022-12-22T15:07:54.417Z,178.78
2022-12-22T15:17:19.484Z,183.13
2022-12-22T15:27:19.276Z,180.85
2022-12-22T15:37:19.413Z,180.89
2022-12-22T15:47:19.589Z,178.60
2022-12-22T15:57:19.652Z,167.54
2022-12-22T16:07:19.385Z,180.00
2022-12-22T16:17:19.246Z,179.39
2022-12-22T16:27:19.367Z,180.00
2022-12-22T16:37:19.507Z,180.00
2022-12-22T16:47:19.558Z,178.90
2022-12-22T16:57:19.645Z,179.34
2022-12-22T17:07:19.675Z,180.00
2022-12-22T17:17:21.124Z,179.95
2022-12-22T17:27:19.407Z,179.89
2022-12-22T17:37:19.683Z,180.00
2022-12-22T17:47:22.767Z,180.00
2022-12-22T17:57:19.491Z,178.44
2022-12-22T18:07:19.673Z,179.71
2022-12-22T18:17:19.644Z,178.72
2022-12-22T18:27:19.803Z,180.00
2022-12-22T18:37:19.771Z,180.00
2022-12-22T18:47:19.941Z,180.00
2022-12-22T18:57:20.008Z,179.88
2022-12-22T19:07:19.946Z,180.00
2022-12-22T19:17:20.132Z,179.45
